Preveza, Greece
Current Conditions -  °F | °C
As of 12:20 PM on Sunday 26 Oct 2014 (Local Time) from LGPZ Reporting Station
Broken Clouds Broken Clouds  
Wind Chill: 17°   Ceiling: 8000
Heat Index: 17°   Visibility: 6mi
Dew Point:   Wind: 13mph
Humidity: 55%   Direction: 70°ENE
Pressure: 30.03"   Gusts: NA
Location:  38.95°N, 20.75°E
Report Text: LGPZ 260920Z 07011KT 9999 SCT025 BKN080 17/08 Q1017
Loading
Personal Weather Stations






























Interactive Weather Map
Tropical Storm Tracking
New forecast layout! Learn more

10-Day Weather Forecast

Advertisements
Track Severe Weather on mobile